Accueil
METAR-TAF:

METAR-TAF

Aéroports :

Hofu, Japon

latitude: 34-02N, longitude: 131-33E, altitude: 2 m

Observation

Le bulletin a été fait il y a 53 minutes, à 22:31 UTC
Vent 7 kt de est/nord-est
Température 7°C
Humidité 87%
Pression 1013 hPa
Visibilité 10 km ou plus
Quelques nuages à une hauteur de 2000 ft
Nuages fragmentés à une hauteur de 4000 ft
Nuages fragmentés à une hauteur de 7000 ft
faibles averses de pluie

METAR: RJOF 262231Z 07007KT 9999 -SHRA FEW020 BKN040 BKN070 07/05 Q1013 RMK 1CU020 6CU040 7AC070 A2993

Heure: 08:24 (23:24 UTC)


TAF: absent

Observations et prévisions météorologiques de plus de 4000 aéroports (messages METAR et TAF).

Les stations disponibles sont représentées par des disques jaunes et rouges sur la carte.

Passer la souris dessus pour voir le nom de la station.

Cliquer dessus pour voir les observations et prévisions météorologiques.

Pour changer de carte: cliquez sur les boutons verts avec une croix noire pour zoomer, sur le bouton vert avec un tiret pour effectuer un zoom arrière, ou sur les flèches vertes pour les cartes adjacentes.


METAR-TAF: